sensor_id;sensor_type;location;lat;lon;timestamp;pressure;altitude;pressure_sealevel;temperature;humidity
13456;BME280;6800;50.940;6.940;2022-08-11T00:02:35;101387.25;;;34.62;21.52
13456;BME280;6800;50.940;6.940;2022-08-11T00:06:38;101388.44;;;34.84;21.05
13456;BME280;6800;50.940;6.940;2022-08-11T00:10:39;101387.25;;;34.80;21.57
13456;BME280;6800;50.940;6.940;2022-08-11T00:14:41;101386.28;;;34.57;21.33
13456;BME280;6800;50.940;6.940;2022-08-11T00:18:51;101388.69;;;34.65;21.56
13456;BME280;6800;50.940;6.940;2022-08-11T00:22:52;101377.00;;;34.46;21.52
13456;BME280;6800;50.940;6.940;2022-08-11T00:27:00;101379.78;;;34.39;21.83
13456;BME280;6800;50.940;6.940;2022-08-11T00:31:07;101379.56;;;34.23;21.64
13456;BME280;6800;50.940;6.940;2022-08-11T00:35:12;101381.97;;;34.31;21.74
13456;BME280;6800;50.940;6.940;2022-08-11T00:39:13;101378.72;;;34.40;21.62
13456;BME280;6800;50.940;6.940;2022-08-11T00:43:43;101377.69;;;34.41;21.75
13456;BME280;6800;50.940;6.940;2022-08-11T00:48:39;101375.72;;;34.30;21.82
13456;BME280;6800;50.940;6.940;2022-08-11T01:09:48;101386.00;;;34.04;22.35
13456;BME280;6800;50.940;6.940;2022-08-11T01:14:38;101385.81;;;33.99;21.94
13456;BME280;6800;50.940;6.940;2022-08-11T01:23:40;101378.41;;;33.63;22.47
13456;BME280;6800;50.940;6.940;2022-08-11T01:45:41;101381.25;;;33.12;22.59
13456;BME280;6800;50.940;6.940;2022-08-11T01:49:56;101381.06;;;33.69;21.83
13456;BME280;6800;50.940;6.940;2022-08-11T01:58:34;101377.09;;;33.72;21.76
13456;BME280;6800;50.940;6.940;2022-08-11T02:03:04;101384.88;;;33.87;21.72
13456;BME280;6800;50.940;6.940;2022-08-11T02:11:48;101387.63;;;33.24;22.32
13456;BME280;6800;50.940;6.940;2022-08-11T02:15:54;101392.53;;;33.71;21.71
13456;BME280;6800;50.940;6.940;2022-08-11T02:20:10;101382.91;;;33.75;21.80
13456;BME280;6800;50.940;6.940;2022-08-11T02:24:44;101389.13;;;33.45;22.55
13456;BME280;6800;50.940;6.940;2022-08-11T02:33:19;101386.22;;;33.53;22.13
13456;BME280;6800;50.940;6.940;2022-08-11T02:37:35;101382.66;;;33.52;23.13
13456;BME280;6800;50.940;6.940;2022-08-11T02:46:17;101382.06;;;33.44;23.87
13456;BME280;6800;50.940;6.940;2022-08-11T02:50:20;101391.13;;;33.31;24.23
13456;BME280;6800;50.940;6.940;2022-08-11T02:58:58;101388.53;;;33.12;24.04
13456;BME280;6800;50.940;6.940;2022-08-11T03:03:28;101393.06;;;33.18;23.85
13456;BME280;6800;50.940;6.940;2022-08-11T03:11:56;101381.31;;;32.92;24.05
13456;BME280;6800;50.940;6.940;2022-08-11T03:16:33;101383.50;;;33.15;23.66
13456;BME280;6800;50.940;6.940;2022-08-11T03:21:01;101387.53;;;33.06;23.73
13456;BME280;6800;50.940;6.940;2022-08-11T03:25:15;101388.59;;;32.98;24.11
13456;BME280;6800;50.940;6.940;2022-08-11T03:38:08;101379.75;;;32.72;23.56
13456;BME280;6800;50.940;6.940;2022-08-11T03:42:35;101383.47;;;32.77;23.40
13456;BME280;6800;50.940;6.940;2022-08-11T03:47:09;101380.75;;;32.77;23.30
13456;BME280;6800;50.940;6.940;2022-08-11T03:55:26;101379.84;;;32.90;23.10
13456;BME280;6800;50.940;6.940;2022-08-11T04:00:03;101378.66;;;32.79;22.99
13456;BME280;6800;50.940;6.940;2022-08-11T04:22:48;101380.94;;;32.82;23.27
13456;BME280;6800;50.940;6.940;2022-08-11T04:31:56;101388.81;;;32.90;23.25
13456;BME280;6800;50.940;6.940;2022-08-11T05:04:10;101398.16;;;32.94;23.35
13456;BME280;6800;50.940;6.940;2022-08-11T05:13:04;101401.47;;;32.52;24.17
13456;BME280;6800;50.940;6.940;2022-08-11T05:21:58;101405.28;;;32.89;23.62
13456;BME280;6800;50.940;6.940;2022-08-11T05:26:19;101409.59;;;33.03;23.88
13456;BME280;6800;50.940;6.940;2022-08-11T05:30:40;101417.94;;;32.95;23.46
13456;BME280;6800;50.940;6.940;2022-08-11T05:35:03;101406.84;;;32.46;23.96
13456;BME280;6800;50.940;6.940;2022-08-11T05:39:13;101412.84;;;32.74;23.62
13456;BME280;6800;50.940;6.940;2022-08-11T05:43:34;101416.03;;;32.51;23.98
13456;BME280;6800;50.940;6.940;2022-08-11T05:47:58;101419.81;;;32.94;23.43
13456;BME280;6800;50.940;6.940;2022-08-11T05:52:23;101425.28;;;32.75;23.55
13456;BME280;6800;50.940;6.940;2022-08-11T05:56:48;101431.78;;;33.25;22.90
13456;BME280;6800;50.940;6.940;2022-08-11T06:00:49;101433.94;;;33.78;22.24
13456;BME280;6800;50.940;6.940;2022-08-11T06:04:59;101417.84;;;34.08;22.06
13456;BME280;6800;50.940;6.940;2022-08-11T06:09:00;101425.09;;;34.75;21.13
13456;BME280;6800;50.940;6.940;2022-08-11T06:13:02;101428.81;;;35.28;20.62
13456;BME280;6800;50.940;6.940;2022-08-11T06:17:04;101425.00;;;36.12;19.51
13456;BME280;6800;50.940;6.940;2022-08-11T06:21:08;101420.97;;;36.49;19.67
13456;BME280;6800;50.940;6.940;2022-08-11T06:25:10;101416.66;;;36.88;19.54
13456;BME280;6800;50.940;6.940;2022-08-11T06:29:11;101413.69;;;37.46;18.73
13456;BME280;6800;50.940;6.940;2022-08-11T06:33:28;101420.88;;;38.18;18.07
13456;BME280;6800;50.940;6.940;2022-08-11T06:37:39;101419.66;;;37.31;18.38
13456;BME280;6800;50.940;6.940;2022-08-11T06:42:04;101422.97;;;37.33;18.28
13456;BME280;6800;50.940;6.940;2022-08-11T06:46:08;101421.50;;;38.80;17.45
13456;BME280;6800;50.940;6.940;2022-08-11T06:50:11;101423.84;;;38.34;17.55
13456;BME280;6800;50.940;6.940;2022-08-11T06:54:39;101413.50;;;38.74;17.82
13456;BME280;6800;50.940;6.940;2022-08-11T06:58:40;101421.31;;;39.35;17.22
13456;BME280;6800;50.940;6.940;2022-08-11T07:03:07;101418.63;;;40.45;15.97
13456;BME280;6800;50.940;6.940;2022-08-11T07:12:05;101415.72;;;40.67;15.18
13456;BME280;6800;50.940;6.940;2022-08-11T07:16:30;101407.94;;;40.49;16.40
13456;BME280;6800;50.940;6.940;2022-08-11T07:20:37;101418.09;;;39.43;17.23
13456;BME280;6800;50.940;6.940;2022-08-11T07:25:13;101413.50;;;40.12;16.76
13456;BME280;6800;50.940;6.940;2022-08-11T07:29:34;101415.28;;;41.00;15.54
13456;BME280;6800;50.940;6.940;2022-08-11T07:33:47;101419.06;;;40.27;15.63
13456;BME280;6800;50.940;6.940;2022-08-11T07:37:56;101414.22;;;41.06;16.04
13456;BME280;6800;50.940;6.940;2022-08-11T07:41:59;101403.41;;;43.20;13.76
13456;BME280;6800;50.940;6.940;2022-08-11T07:46:04;101395.88;;;42.03;14.72
13456;BME280;6800;50.940;6.940;2022-08-11T07:50:24;101399.66;;;42.37;14.50
13456;BME280;6800;50.940;6.940;2022-08-11T07:54:44;101400.56;;;42.12;15.03
13456;BME280;6800;50.940;6.940;2022-08-11T07:58:45;101390.25;;;40.77;15.69
13456;BME280;6800;50.940;6.940;2022-08-11T08:03:05;101396.13;;;41.10;15.12
13456;BME280;6800;50.940;6.940;2022-08-11T08:07:25;101395.09;;;42.86;13.94
13456;BME280;6800;50.940;6.940;2022-08-11T08:11:45;101400.44;;;44.60;12.84
13456;BME280;6800;50.940;6.940;2022-08-11T08:16:05;101385.41;;;45.08;12.45
13456;BME280;6800;50.940;6.940;2022-08-11T08:20:32;101399.13;;;43.42;13.38
13456;BME280;6800;50.940;6.940;2022-08-11T08:24:33;101404.00;;;44.37;12.93
13456;BME280;6800;50.940;6.940;2022-08-11T08:28:34;101399.53;;;43.65;12.85
13456;BME280;6800;50.940;6.940;2022-08-11T08:32:38;101402.44;;;43.01;13.40
13456;BME280;6800;50.940;6.940;2022-08-11T08:36:42;101400.84;;;42.16;14.05
13456;BME280;6800;50.940;6.940;2022-08-11T08:40:44;101399.78;;;41.66;14.42
13456;BME280;6800;50.940;6.940;2022-08-11T08:44:51;101403.84;;;42.19;14.57
13456;BME280;6800;50.940;6.940;2022-08-11T08:48:55;101403.75;;;43.81;13.14
13456;BME280;6800;50.940;6.940;2022-08-11T08:53:03;101397.78;;;44.50;12.14
13456;BME280;6800;50.940;6.940;2022-08-11T08:57:05;101399.75;;;44.49;12.07
13456;BME280;6800;50.940;6.940;2022-08-11T09:01:09;101399.22;;;44.89;11.64
13456;BME280;6800;50.940;6.940;2022-08-11T09:05:10;101402.63;;;45.37;11.79
13456;BME280;6800;50.940;6.940;2022-08-11T09:09:11;101405.09;;;44.83;11.49
13456;BME280;6800;50.940;6.940;2022-08-11T09:13:13;101408.94;;;43.54;12.55
13456;BME280;6800;50.940;6.940;2022-08-11T09:17:17;101401.69;;;43.96;12.56
13456;BME280;6800;50.940;6.940;2022-08-11T09:21:18;101406.09;;;43.69;12.35
13456;BME280;6800;50.940;6.940;2022-08-11T09:25:25;101395.38;;;45.41;11.05
13456;BME280;6800;50.940;6.940;2022-08-11T09:29:45;101396.03;;;45.52;11.38
13456;BME280;6800;50.940;6.940;2022-08-11T09:33:46;101390.78;;;45.18;11.30
13456;BME280;6800;50.940;6.940;2022-08-11T09:37:48;101388.31;;;48.01;10.00
13456;BME280;6800;50.940;6.940;2022-08-11T09:42:07;101386.44;;;47.13;9.86
13456;BME280;6800;50.940;6.940;2022-08-11T09:46:08;101383.13;;;46.88;9.95
13456;BME280;6800;50.940;6.940;2022-08-11T09:50:10;101384.47;;;47.49;9.70
13456;BME280;6800;50.940;6.940;2022-08-11T09:54:14;101387.72;;;48.60;8.84
13456;BME280;6800;50.940;6.940;2022-08-11T09:58:16;101367.00;;;48.66;8.83
13456;BME280;6800;50.940;6.940;2022-08-11T10:02:22;101365.41;;;49.08;8.59
13456;BME280;6800;50.940;6.940;2022-08-11T10:06:25;101366.56;;;49.87;8.61
13456;BME280;6800;50.940;6.940;2022-08-11T10:10:46;101356.22;;;49.33;8.43
13456;BME280;6800;50.940;6.940;2022-08-11T10:14:52;101350.53;;;50.51;8.45
13456;BME280;6800;50.940;6.940;2022-08-11T10:19:11;101359.63;;;48.62;9.04
13456;BME280;6800;50.940;6.940;2022-08-11T10:23:12;101350.44;;;48.27;9.10
13456;BME280;6800;50.940;6.940;2022-08-11T10:27:31;101342.63;;;47.59;9.81
13456;BME280;6800;50.940;6.940;2022-08-11T10:31:33;101345.94;;;48.57;8.87
13456;BME280;6800;50.940;6.940;2022-08-11T10:35:52;101333.81;;;47.35;9.63
13456;BME280;6800;50.940;6.940;2022-08-11T10:39:53;101341.84;;;47.67;9.46
13456;BME280;6800;50.940;6.940;2022-08-11T10:43:55;101320.66;;;49.01;8.53
13456;BME280;6800;50.940;6.940;2022-08-11T10:47:56;101322.91;;;49.33;8.72
13456;BME280;6800;50.940;6.940;2022-08-11T10:51:58;101320.44;;;50.16;7.76
13456;BME280;6800;50.940;6.940;2022-08-11T10:56:19;101312.44;;;46.33;9.75
13456;BME280;6800;50.940;6.940;2022-08-11T11:00:38;101313.13;;;48.59;8.83
13456;BME280;6800;50.940;6.940;2022-08-11T11:09:06;101287.28;;;50.31;7.56
13456;BME280;6800;50.940;6.940;2022-08-11T11:13:07;101299.22;;;48.41;8.20
13456;BME280;6800;50.940;6.940;2022-08-11T11:17:37;101288.94;;;48.16;8.83
13456;BME280;6800;50.940;6.940;2022-08-11T11:21:58;101276.09;;;49.61;7.77
13456;BME280;6800;50.940;6.940;2022-08-11T11:31:03;101272.75;;;49.12;8.11
13456;BME280;6800;50.940;6.940;2022-08-11T11:39:34;101250.94;;;48.68;8.30
13456;BME280;6800;50.940;6.940;2022-08-11T11:43:36;101268.75;;;47.46;9.05
13456;BME280;6800;50.940;6.940;2022-08-11T11:47:36;101249.31;;;49.48;7.84
13456;BME280;6800;50.940;6.940;2022-08-11T11:51:37;101250.53;;;49.12;7.98
13456;BME280;6800;50.940;6.940;2022-08-11T11:55:39;101241.13;;;48.28;8.38
13456;BME280;6800;50.940;6.940;2022-08-11T11:59:40;101252.00;;;47.20;8.78
13456;BME280;6800;50.940;6.940;2022-08-11T12:03:59;101232.03;;;47.71;8.80
13456;BME280;6800;50.940;6.940;2022-08-11T12:12:04;101222.72;;;46.39;9.38
13456;BME280;6800;50.940;6.940;2022-08-11T12:16:24;101223.38;;;47.02;9.28
13456;BME280;6800;50.940;6.940;2022-08-11T12:20:26;101222.81;;;47.14;9.61
13456;BME280;6800;50.940;6.940;2022-08-11T12:24:28;101213.53;;;42.14;12.01
13456;BME280;6800;50.940;6.940;2022-08-11T12:28:48;101197.00;;;45.35;9.73
13456;BME280;6800;50.940;6.940;2022-08-11T12:32:49;101190.91;;;45.79;9.39
13456;BME280;6800;50.940;6.940;2022-08-11T12:37:03;101192.81;;;44.41;10.75
13456;BME280;6800;50.940;6.940;2022-08-11T12:41:06;101184.09;;;43.96;11.40
13456;BME280;6800;50.940;6.940;2022-08-11T12:45:26;101184.75;;;41.96;11.80
13456;BME280;6800;50.940;6.940;2022-08-11T12:49:30;101183.72;;;42.75;12.12
13456;BME280;6800;50.940;6.940;2022-08-11T12:54:08;101182.50;;;42.57;11.92
13456;BME280;6800;50.940;6.940;2022-08-11T12:58:12;101172.31;;;41.65;12.71
13456;BME280;6800;50.940;6.940;2022-08-11T13:02:18;101166.06;;;42.86;11.41
13456;BME280;6800;50.940;6.940;2022-08-11T13:06:38;101170.66;;;42.23;11.99
13456;BME280;6800;50.940;6.940;2022-08-11T13:10:40;101167.03;;;43.00;11.94
13456;BME280;6800;50.940;6.940;2022-08-11T13:15:01;101162.00;;;42.39;11.75
13456;BME280;6800;50.940;6.940;2022-08-11T13:19:01;101168.53;;;41.15;12.80
13456;BME280;6800;50.940;6.940;2022-08-11T13:23:02;101153.41;;;41.48;12.78
13456;BME280;6800;50.940;6.940;2022-08-11T13:27:03;101145.97;;;42.13;12.16
13456;BME280;6800;50.940;6.940;2022-08-11T13:31:05;101140.91;;;42.68;11.88
13456;BME280;6800;50.940;6.940;2022-08-11T13:35:12;101140.84;;;41.96;12.10
13456;BME280;6800;50.940;6.940;2022-08-11T13:39:14;101134.47;;;41.47;12.77
13456;BME280;6800;50.940;6.940;2022-08-11T13:43:16;101132.63;;;41.27;12.59
13456;BME280;6800;50.940;6.940;2022-08-11T13:47:19;101125.75;;;41.93;12.84
13456;BME280;6800;50.940;6.940;2022-08-11T13:55:42;101123.06;;;42.27;11.92
13456;BME280;6800;50.940;6.940;2022-08-11T13:59:45;101125.59;;;42.24;12.25
13456;BME280;6800;50.940;6.940;2022-08-11T14:03:48;101124.53;;;42.53;11.81
13456;BME280;6800;50.940;6.940;2022-08-11T14:08:06;101116.06;;;42.45;12.54
13456;BME280;6800;50.940;6.940;2022-08-11T14:12:35;101109.84;;;42.68;11.99
13456;BME280;6800;50.940;6.940;2022-08-11T14:16:55;101107.94;;;42.30;12.53
13456;BME280;6800;50.940;6.940;2022-08-11T14:20:58;101106.06;;;42.25;12.56
13456;BME280;6800;50.940;6.940;2022-08-11T14:25:18;101097.06;;;40.62;13.04
13456;BME280;6800;50.940;6.940;2022-08-11T14:29:20;101097.78;;;39.97;13.63
13456;BME280;6800;50.940;6.940;2022-08-11T14:33:22;101084.53;;;41.55;12.80
13456;BME280;6800;50.940;6.940;2022-08-11T14:37:24;101085.84;;;42.16;11.90
13456;BME280;6800;50.940;6.940;2022-08-11T14:41:26;101081.53;;;42.34;12.43
13456;BME280;6800;50.940;6.940;2022-08-11T14:45:46;101079.59;;;41.47;12.68
13456;BME280;6800;50.940;6.940;2022-08-11T14:50:08;101067.63;;;41.17;12.94
13456;BME280;6800;50.940;6.940;2022-08-11T14:54:10;101067.97;;;41.06;13.18
13456;BME280;6800;50.940;6.940;2022-08-11T14:58:30;101060.28;;;41.03;13.55
13456;BME280;6800;50.940;6.940;2022-08-11T15:02:35;101077.63;;;40.63;13.42
13456;BME280;6800;50.940;6.940;2022-08-11T15:07:06;101068.09;;;41.45;12.64
13456;BME280;6800;50.940;6.940;2022-08-11T15:11:08;101061.16;;;42.06;12.26
13456;BME280;6800;50.940;6.940;2022-08-11T15:15:30;101056.13;;;41.79;12.57
13456;BME280;6800;50.940;6.940;2022-08-11T15:19:50;101056.19;;;42.42;11.89
13456;BME280;6800;50.940;6.940;2022-08-11T15:24:09;101049.50;;;42.24;11.89
13456;BME280;6800;50.940;6.940;2022-08-11T15:28:20;101038.94;;;40.90;12.74
13456;BME280;6800;50.940;6.940;2022-08-11T15:32:41;101034.25;;;41.59;12.77
13456;BME280;6800;50.940;6.940;2022-08-11T15:42:06;101028.84;;;41.49;12.84
13456;BME280;6800;50.940;6.940;2022-08-11T15:46:40;101025.28;;;40.85;13.61
13456;BME280;6800;50.940;6.940;2022-08-11T15:50:45;101023.38;;;40.35;13.74
13456;BME280;6800;50.940;6.940;2022-08-11T15:54:48;101022.00;;;40.32;13.33
13456;BME280;6800;50.940;6.940;2022-08-11T15:58:52;101007.22;;;39.98;13.95
13456;BME280;6800;50.940;6.940;2022-08-11T16:03:12;100999.97;;;42.01;12.65
13456;BME280;6800;50.940;6.940;2022-08-11T16:07:34;101001.22;;;41.84;12.38
13456;BME280;6800;50.940;6.940;2022-08-11T16:11:36;100998.56;;;42.37;12.30
13456;BME280;6800;50.940;6.940;2022-08-11T16:15:53;100991.69;;;42.39;12.07
13456;BME280;6800;50.940;6.940;2022-08-11T16:20:14;100978.09;;;42.77;12.35
13456;BME280;6800;50.940;6.940;2022-08-11T16:24:22;100980.13;;;42.66;12.02
13456;BME280;6800;50.940;6.940;2022-08-11T16:28:24;100987.06;;;42.87;11.80
13456;BME280;6800;50.940;6.940;2022-08-11T16:32:25;100982.34;;;42.93;11.91
13456;BME280;6800;50.940;6.940;2022-08-11T16:36:27;100981.97;;;42.52;12.24
13456;BME280;6800;50.940;6.940;2022-08-11T16:40:50;100984.81;;;42.65;12.15
13456;BME280;6800;50.940;6.940;2022-08-11T16:44:57;100986.16;;;40.19;14.04
13456;BME280;6800;50.940;6.940;2022-08-11T16:49:23;100983.38;;;39.63;14.16
13456;BME280;6800;50.940;6.940;2022-08-11T16:53:27;100974.03;;;42.17;11.92
13456;BME280;6800;50.940;6.940;2022-08-11T16:57:29;100971.81;;;40.72;13.31
13456;BME280;6800;50.940;6.940;2022-08-11T17:01:54;100974.72;;;42.32;12.13
13456;BME280;6800;50.940;6.940;2022-08-11T17:05:57;100973.09;;;41.10;13.45
13456;BME280;6800;50.940;6.940;2022-08-11T17:10:20;100961.19;;;40.66;13.28
13456;BME280;6800;50.940;6.940;2022-08-11T17:14:47;100957.13;;;40.48;13.15
13456;BME280;6800;50.940;6.940;2022-08-11T17:18:59;100959.31;;;41.74;12.63
13456;BME280;6800;50.940;6.940;2022-08-11T17:23:03;100958.34;;;42.22;12.28
13456;BME280;6800;50.940;6.940;2022-08-11T17:27:23;100957.81;;;42.49;12.05
13456;BME280;6800;50.940;6.940;2022-08-11T17:31:25;100956.44;;;42.46;12.49
13456;BME280;6800;50.940;6.940;2022-08-11T17:35:47;100962.13;;;41.10;13.27
13456;BME280;6800;50.940;6.940;2022-08-11T17:39:48;100963.28;;;41.48;13.06
13456;BME280;6800;50.940;6.940;2022-08-11T17:43:50;100961.97;;;40.71;13.63
13456;BME280;6800;50.940;6.940;2022-08-11T17:48:12;100960.84;;;40.77;13.66
13456;BME280;6800;50.940;6.940;2022-08-11T17:52:24;100951.66;;;40.23;13.79
13456;BME280;6800;50.940;6.940;2022-08-11T17:56:45;100964.13;;;41.48;13.21
13456;BME280;6800;50.940;6.940;2022-08-11T18:01:05;100963.13;;;41.73;12.46
13456;BME280;6800;50.940;6.940;2022-08-11T18:05:08;100955.41;;;40.62;13.62
13456;BME280;6800;50.940;6.940;2022-08-11T18:09:14;100965.53;;;40.82;13.48
13456;BME280;6800;50.940;6.940;2022-08-11T18:13:35;100956.56;;;40.36;13.75
13456;BME280;6800;50.940;6.940;2022-08-11T18:17:55;100965.63;;;40.31;13.82
13456;BME280;6800;50.940;6.940;2022-08-11T18:22:24;100975.44;;;40.68;14.25
13456;BME280;6800;50.940;6.940;2022-08-11T18:26:44;100980.09;;;40.37;14.48
13456;BME280;6800;50.940;6.940;2022-08-11T18:31:06;100981.56;;;41.67;13.46
13456;BME280;6800;50.940;6.940;2022-08-11T18:35:27;100971.88;;;40.32;13.39
13456;BME280;6800;50.940;6.940;2022-08-11T18:39:49;100981.88;;;41.02;13.72
13456;BME280;6800;50.940;6.940;2022-08-11T18:44:11;100980.56;;;40.89;13.13
13456;BME280;6800;50.940;6.940;2022-08-11T18:48:38;100984.72;;;40.62;13.51
13456;BME280;6800;50.940;6.940;2022-08-11T18:53:00;100977.91;;;39.94;14.11
13456;BME280;6800;50.940;6.940;2022-08-11T18:57:19;100989.97;;;40.38;13.87
13456;BME280;6800;50.940;6.940;2022-08-11T19:01:39;100993.91;;;39.25;14.82
13456;BME280;6800;50.940;6.940;2022-08-11T19:06:01;100992.59;;;39.47;14.57
13456;BME280;6800;50.940;6.940;2022-08-11T19:10:22;101003.63;;;39.88;14.87
13456;BME280;6800;50.940;6.940;2022-08-11T19:14:44;101012.13;;;39.91;14.99
13456;BME280;6800;50.940;6.940;2022-08-11T19:19:04;101020.81;;;39.53;15.14
13456;BME280;6800;50.940;6.940;2022-08-11T19:23:33;101024.31;;;38.86;16.92
13456;BME280;6800;50.940;6.940;2022-08-11T19:27:53;101035.75;;;39.30;16.10
13456;BME280;6800;50.940;6.940;2022-08-11T19:32:13;101036.72;;;39.61;16.27
13456;BME280;6800;50.940;6.940;2022-08-11T19:36:33;101048.09;;;38.49;16.99
13456;BME280;6800;50.940;6.940;2022-08-11T19:40:53;101051.41;;;38.56;17.90
13456;BME280;6800;50.940;6.940;2022-08-11T19:45:13;101052.19;;;38.47;17.10
13456;BME280;6800;50.940;6.940;2022-08-11T19:49:34;101056.31;;;38.54;16.25
13456;BME280;6800;50.940;6.940;2022-08-11T19:53:55;101060.81;;;38.34;16.65
13456;BME280;6800;50.940;6.940;2022-08-11T19:58:15;101067.59;;;37.56;17.46
13456;BME280;6800;50.940;6.940;2022-08-11T20:02:34;101059.00;;;38.17;16.86
13456;BME280;6800;50.940;6.940;2022-08-11T20:06:55;101064.06;;;37.34;17.70
13456;BME280;6800;50.940;6.940;2022-08-11T20:11:18;101061.13;;;38.15;17.35
13456;BME280;6800;50.940;6.940;2022-08-11T20:15:38;101068.38;;;38.00;17.17
13456;BME280;6800;50.940;6.940;2022-08-11T20:20:00;101063.41;;;37.70;18.02
13456;BME280;6800;50.940;6.940;2022-08-11T20:24:20;101067.47;;;37.89;17.77
13456;BME280;6800;50.940;6.940;2022-08-11T20:28:41;101068.25;;;38.16;17.51
13456;BME280;6800;50.940;6.940;2022-08-11T20:33:00;101069.63;;;37.87;17.74
13456;BME280;6800;50.940;6.940;2022-08-11T20:37:20;101073.47;;;37.43;18.18
13456;BME280;6800;50.940;6.940;2022-08-11T20:41:41;101072.00;;;37.19;18.24
13456;BME280;6800;50.940;6.940;2022-08-11T20:46:02;101076.09;;;37.38;18.18
13456;BME280;6800;50.940;6.940;2022-08-11T20:50:23;101074.81;;;37.89;18.42
13456;BME280;6800;50.940;6.940;2022-08-11T20:54:45;101076.91;;;37.82;18.57
13456;BME280;6800;50.940;6.940;2022-08-11T20:59:05;101079.50;;;37.50;18.44
13456;BME280;6800;50.940;6.940;2022-08-11T21:03:25;101080.25;;;37.24;18.35
13456;BME280;6800;50.940;6.940;2022-08-11T21:07:47;101088.06;;;36.32;19.35
13456;BME280;6800;50.940;6.940;2022-08-11T21:12:07;101083.81;;;36.08;19.45
13456;BME280;6800;50.940;6.940;2022-08-11T21:16:31;101091.78;;;36.93;18.29
13456;BME280;6800;50.940;6.940;2022-08-11T21:20:50;101082.97;;;37.02;18.64
13456;BME280;6800;50.940;6.940;2022-08-11T21:25:10;101083.66;;;36.43;18.56
13456;BME280;6800;50.940;6.940;2022-08-11T21:29:32;101085.34;;;36.32;19.31
13456;BME280;6800;50.940;6.940;2022-08-11T21:33:52;101078.22;;;35.58;20.16
13456;BME280;6800;50.940;6.940;2022-08-11T21:38:14;101085.06;;;35.61;19.44
13456;BME280;6800;50.940;6.940;2022-08-11T21:42:37;101079.09;;;35.12;20.64
13456;BME280;6800;50.940;6.940;2022-08-11T21:46:58;101085.31;;;35.87;19.63
13456;BME280;6800;50.940;6.940;2022-08-11T21:51:18;101072.91;;;35.52;20.05
13456;BME280;6800;50.940;6.940;2022-08-11T21:55:37;101083.88;;;35.57;19.62
13456;BME280;6800;50.940;6.940;2022-08-11T21:59:58;101078.00;;;35.25;19.75
13456;BME280;6800;50.940;6.940;2022-08-11T22:04:18;101081.03;;;36.20;19.50
13456;BME280;6800;50.940;6.940;2022-08-11T22:08:38;101085.41;;;36.21;19.39
13456;BME280;6800;50.940;6.940;2022-08-11T22:12:57;101086.03;;;35.83;19.94
13456;BME280;6800;50.940;6.940;2022-08-11T22:17:16;101083.06;;;36.13;19.64
13456;BME280;6800;50.940;6.940;2022-08-11T22:21:35;101080.28;;;35.68;20.96
13456;BME280;6800;50.940;6.940;2022-08-11T22:25:55;101076.81;;;36.12;20.49
13456;BME280;6800;50.940;6.940;2022-08-11T22:30:14;101078.59;;;35.78;20.93
13456;BME280;6800;50.940;6.940;2022-08-11T22:34:33;101083.47;;;36.04;20.24
13456;BME280;6800;50.940;6.940;2022-08-11T22:38:53;101084.66;;;35.17;21.20
13456;BME280;6800;50.940;6.940;2022-08-11T22:43:13;101083.50;;;35.93;19.95
13456;BME280;6800;50.940;6.940;2022-08-11T22:47:33;101085.94;;;36.06;19.69
13456;BME280;6800;50.940;6.940;2022-08-11T22:51:53;101084.47;;;35.87;19.53
13456;BME280;6800;50.940;6.940;2022-08-11T22:56:13;101085.81;;;36.29;19.06
13456;BME280;6800;50.940;6.940;2022-08-11T23:00:32;101085.50;;;36.26;19.34
13456;BME280;6800;50.940;6.940;2022-08-11T23:04:52;101085.72;;;36.08;19.62
13456;BME280;6800;50.940;6.940;2022-08-11T23:09:11;101086.47;;;35.91;19.40
13456;BME280;6800;50.940;6.940;2022-08-11T23:13:32;101092.63;;;35.87;19.68
13456;BME280;6800;50.940;6.940;2022-08-11T23:17:51;101094.31;;;35.76;20.00
13456;BME280;6800;50.940;6.940;2022-08-11T23:22:10;101094.00;;;35.73;19.54
13456;BME280;6800;50.940;6.940;2022-08-11T23:26:30;101090.00;;;35.64;19.78
13456;BME280;6800;50.940;6.940;2022-08-11T23:30:52;101094.16;;;35.43;20.08
13456;BME280;6800;50.940;6.940;2022-08-11T23:35:12;101099.91;;;35.70;20.05
13456;BME280;6800;50.940;6.940;2022-08-11T23:39:31;101097.84;;;35.49;20.34
13456;BME280;6800;50.940;6.940;2022-08-11T23:43:50;101100.56;;;35.25;20.16
13456;BME280;6800;50.940;6.940;2022-08-11T23:48:13;101099.78;;;35.02;20.54
13456;BME280;6800;50.940;6.940;2022-08-11T23:52:34;101100.13;;;35.17;20.99
13456;BME280;6800;50.940;6.940;2022-08-11T23:56:54;101092.69;;;35.12;20.59
